createdAt,value
2018-02-19T00:00:21.853Z,19.77
2018-02-19T00:02:50.778Z,20.77
2018-02-19T00:05:19.881Z,19.95
2018-02-19T00:07:49.262Z,21.08
2018-02-19T00:10:18.406Z,21.58
2018-02-19T00:12:47.449Z,21.12
2018-02-19T00:15:16.435Z,19.55
2018-02-19T00:17:45.348Z,17.98
2018-02-19T00:20:14.665Z,22.58
2018-02-19T00:22:44.134Z,20.40
2018-02-19T00:25:13.555Z,20.37
2018-02-19T00:27:42.627Z,19.77
2018-02-19T00:30:12.045Z,21.70
2018-02-19T00:32:41.246Z,20.60
2018-02-19T00:35:10.591Z,20.45
2018-02-19T00:37:40.856Z,22.67
2018-02-19T00:40:09.906Z,19.80
2018-02-19T00:42:39.155Z,21.08
2018-02-19T00:45:08.267Z,19.55
2018-02-19T00:47:37.449Z,21.87
2018-02-19T00:50:06.550Z,22.17
2018-02-19T00:52:35.703Z,22.08
2018-02-19T00:55:05.150Z,20.92
2018-02-19T00:57:34.336Z,20.65
2018-02-19T01:00:03.603Z,21.92
2018-02-19T01:02:33.048Z,21.02
2018-02-19T01:05:03.026Z,20.62
2018-02-19T01:07:32.507Z,20.83
2018-02-19T01:10:01.573Z,21.83
2018-02-19T01:12:30.674Z,20.15
2018-02-19T01:14:59.701Z,23.17
2018-02-19T01:17:29.270Z,27.10
2018-02-19T01:19:58.290Z,22.35
2018-02-19T01:22:27.283Z,21.62
2018-02-19T01:24:56.344Z,26.42
2018-02-19T01:27:25.436Z,27.40
2018-02-19T01:29:54.877Z,23.62
2018-02-19T01:32:24.313Z,23.48
2018-02-19T01:34:53.281Z,21.40
2018-02-19T01:37:22.643Z,20.90
2018-02-19T01:39:51.640Z,18.77
2018-02-19T01:42:20.907Z,19.92
2018-02-19T01:44:50.154Z,18.77
2018-02-19T01:47:19.159Z,20.98
2018-02-19T01:49:59.553Z,19.08
2018-02-19T01:52:28.925Z,18.73
2018-02-19T01:54:58.508Z,20.70
2018-02-19T01:57:27.405Z,19.37
2018-02-19T01:59:56.858Z,19.77
2018-02-19T02:02:26.512Z,17.73
2018-02-19T02:04:55.674Z,17.27
2018-02-19T02:07:24.746Z,17.75
2018-02-19T02:09:54.233Z,18.25
2018-02-19T02:12:24.118Z,18.17
2018-02-19T02:14:53.653Z,20.25
2018-02-19T02:17:23.031Z,18.27
2018-02-19T02:19:52.423Z,15.18
2018-02-19T02:22:21.309Z,16.52
2018-02-19T02:24:50.366Z,15.32
2018-02-19T02:27:19.411Z,17.75
2018-02-19T02:29:48.605Z,16.87
2018-02-19T02:32:18.011Z,14.68
2018-02-19T02:34:47.200Z,17.30
2018-02-19T02:37:16.245Z,17.58
2018-02-19T02:39:45.534Z,18.80
2018-02-19T02:42:14.669Z,18.87
2018-02-19T02:44:43.975Z,16.20
2018-02-19T02:47:13.302Z,16.00
2018-02-19T02:49:42.498Z,18.12
2018-02-19T02:52:12.377Z,19.55
2018-02-19T02:54:41.928Z,16.35
2018-02-19T02:57:11.094Z,16.55
2018-02-19T02:59:40.014Z,17.70
2018-02-19T03:02:09.379Z,17.08
2018-02-19T03:04:38.507Z,14.90
2018-02-19T03:07:07.641Z,17.15
2018-02-19T03:09:37.212Z,15.73
2018-02-19T03:12:06.442Z,16.25
2018-02-19T03:14:35.538Z,16.62
2018-02-19T03:17:04.807Z,16.58
2018-02-19T03:19:34.525Z,15.18
2018-02-19T03:22:03.908Z,15.43
2018-02-19T03:24:33.069Z,15.65
2018-02-19T03:27:02.277Z,15.82
2018-02-19T03:29:31.616Z,16.15
2018-02-19T03:32:00.706Z,15.23
2018-02-19T03:34:30.105Z,16.05
2018-02-19T03:36:59.402Z,15.13
2018-02-19T03:39:28.806Z,15.43
2018-02-19T03:41:58.017Z,17.60
2018-02-19T03:44:27.223Z,16.80
2018-02-19T03:46:56.927Z,17.35
2018-02-19T03:49:26.337Z,16.15
2018-02-19T03:51:55.679Z,15.32
2018-02-19T03:54:25.168Z,17.52
2018-02-19T03:56:54.475Z,18.90
2018-02-19T03:59:23.828Z,19.42
2018-02-19T04:01:52.810Z,17.45
2018-02-19T04:04:21.902Z,18.12
2018-02-19T04:06:51.057Z,18.98
2018-02-19T04:09:20.090Z,17.70
2018-02-19T04:11:49.082Z,17.25
2018-02-19T04:14:18.627Z,20.42
2018-02-19T04:16:48.059Z,19.83
2018-02-19T04:19:17.314Z,16.35
2018-02-19T04:21:46.560Z,18.30
2018-02-19T04:24:15.430Z,17.87
2018-02-19T04:26:44.645Z,17.05
2018-02-19T04:29:14.013Z,16.62
2018-02-19T04:31:42.845Z,16.30
2018-02-19T04:34:11.845Z,14.07
2018-02-19T04:36:41.282Z,17.25
2018-02-19T04:39:10.683Z,17.02
2018-02-19T04:41:39.858Z,16.45
2018-02-19T04:44:09.998Z,16.52
2018-02-19T04:46:39.266Z,19.73
2018-02-19T04:49:08.896Z,18.48
2018-02-19T04:51:38.341Z,18.80
2018-02-19T04:54:07.745Z,16.42
2018-02-19T04:56:36.922Z,17.30
2018-02-19T04:59:06.098Z,17.37
2018-02-19T05:01:35.748Z,14.27
2018-02-19T05:04:05.129Z,14.60
2018-02-19T05:06:34.082Z,16.30
2018-02-19T05:09:03.207Z,16.58
2018-02-19T05:11:32.378Z,17.70
2018-02-19T05:14:01.724Z,18.20
2018-02-19T05:16:31.134Z,18.40
2018-02-19T05:19:00.294Z,15.80
2018-02-19T05:21:29.483Z,17.80
2018-02-19T05:23:58.461Z,18.58
2018-02-19T05:26:27.819Z,19.48
2018-02-19T05:28:56.974Z,20.70
2018-02-19T05:31:25.898Z,21.00
2018-02-19T05:33:55.215Z,20.80
2018-02-19T05:36:24.342Z,22.30
2018-02-19T05:38:53.611Z,17.23
2018-02-19T05:41:23.008Z,17.02
2018-02-19T05:43:52.001Z,20.48
2018-02-19T05:46:21.410Z,19.73
2018-02-19T05:48:50.437Z,19.20
2018-02-19T05:51:19.811Z,18.25
2018-02-19T05:53:49.148Z,17.48
2018-02-19T05:56:18.518Z,24.63
2018-02-19T05:58:47.903Z,22.80
2018-02-19T06:01:17.349Z,24.75
2018-02-19T06:03:47.094Z,20.65
2018-02-19T06:06:16.533Z,17.85
2018-02-19T06:08:45.823Z,20.15
2018-02-19T06:11:15.655Z,19.62
2018-02-19T06:13:44.770Z,20.42
2018-02-19T06:16:14.078Z,16.30
2018-02-19T06:18:43.279Z,22.48
2018-02-19T06:21:13.443Z,17.25
2018-02-19T06:23:42.907Z,17.35
2018-02-19T06:26:12.462Z,18.87
2018-02-19T06:28:41.671Z,17.25
2018-02-19T06:31:10.710Z,24.15
2018-02-19T06:33:39.870Z,18.77
2018-02-19T06:36:08.818Z,20.27
2018-02-19T06:38:37.885Z,18.95
2018-02-19T06:41:07.127Z,20.20
2018-02-19T06:43:36.182Z,17.92
2018-02-19T06:46:05.197Z,20.17
2018-02-19T06:48:34.849Z,21.12
2018-02-19T06:51:03.981Z,21.45
2018-02-19T06:53:33.306Z,19.23
2018-02-19T06:56:02.654Z,22.85
2018-02-19T06:58:31.875Z,18.95
2018-02-19T07:01:01.133Z,20.12
2018-02-19T07:03:30.382Z,22.62
2018-02-19T07:05:59.649Z,22.35
2018-02-19T07:08:28.894Z,20.17
2018-02-19T07:10:58.032Z,23.50
2018-02-19T07:13:27.339Z,21.02
2018-02-19T07:15:56.487Z,19.62
2018-02-19T07:18:25.779Z,18.67
2018-02-19T07:20:54.966Z,26.27
2018-02-19T07:23:23.965Z,23.92
2018-02-19T07:25:53.344Z,18.42
2018-02-19T07:28:22.738Z,24.92
2018-02-19T07:30:51.987Z,22.90
2018-02-19T07:33:21.078Z,30.30
2018-02-19T07:35:50.562Z,21.87
2018-02-19T07:38:19.593Z,21.30
2018-02-19T07:40:49.042Z,21.45
2018-02-19T07:43:18.347Z,17.62
2018-02-19T07:45:47.849Z,21.52
2018-02-19T07:48:17.144Z,24.20
2018-02-19T07:50:46.339Z,17.37
2018-02-19T07:53:15.729Z,23.48
2018-02-19T07:55:45.345Z,20.80
2018-02-19T07:58:14.643Z,17.37
2018-02-19T08:00:43.779Z,20.42
2018-02-19T08:03:13.263Z,22.42
2018-02-19T08:05:42.458Z,26.52
2018-02-19T08:08:11.799Z,19.58
2018-02-19T08:10:41.267Z,19.00
2018-02-19T08:13:10.446Z,17.80
2018-02-19T08:15:39.394Z,14.27
2018-02-19T08:18:08.649Z,17.98
2018-02-19T08:20:37.747Z,15.40
2018-02-19T08:23:06.769Z,18.80
2018-02-19T08:25:36.047Z,18.00
2018-02-19T08:28:05.273Z,16.00
2018-02-19T08:30:34.317Z,15.88
2018-02-19T08:33:04.441Z,16.48
2018-02-19T08:35:33.686Z,17.65
2018-02-19T08:38:03.249Z,16.60
2018-02-19T08:40:32.606Z,10.93
2018-02-19T08:43:01.826Z,18.75
2018-02-19T08:45:30.842Z,12.95
2018-02-19T08:48:00.209Z,14.85
2018-02-19T08:50:29.166Z,16.45
2018-02-19T08:52:58.263Z,17.08
2018-02-19T08:55:27.754Z,15.85
2018-02-19T08:57:57.161Z,15.65
2018-02-19T09:00:26.503Z,18.85
2018-02-19T09:02:55.559Z,18.40
2018-02-19T09:05:24.730Z,15.90
2018-02-19T09:07:53.926Z,15.77
2018-02-19T09:10:23.348Z,12.07
2018-02-19T09:12:52.635Z,14.05
2018-02-19T09:15:22.047Z,13.30
2018-02-19T09:17:51.361Z,11.85
2018-02-19T09:20:20.376Z,9.18
2018-02-19T09:22:49.631Z,9.65
2018-02-19T09:25:18.882Z,11.93
2018-02-19T09:27:48.359Z,10.43
2018-02-19T09:30:17.511Z,9.75
2018-02-19T09:32:46.909Z,6.47
2018-02-19T09:35:16.077Z,11.23
2018-02-19T09:37:45.255Z,5.75
2018-02-19T09:40:14.138Z,12.35
2018-02-19T09:42:43.641Z,10.88
2018-02-19T09:45:12.817Z,8.73
2018-02-19T09:47:41.965Z,8.05
2018-02-19T09:50:10.987Z,26.17
2018-02-19T09:52:40.129Z,9.40
2018-02-19T09:55:09.182Z,11.20
2018-02-19T09:57:38.792Z,14.75
2018-02-19T10:00:07.934Z,14.40
2018-02-19T10:02:37.398Z,19.00
2018-02-19T10:05:06.358Z,17.25
2018-02-19T10:07:35.783Z,17.20
2018-02-19T10:10:05.065Z,20.88
2018-02-19T10:12:34.168Z,18.02
2018-02-19T10:15:03.547Z,20.60
2018-02-19T10:17:32.546Z,26.30
2018-02-19T10:20:02.010Z,21.12
2018-02-19T10:22:31.049Z,23.67
2018-02-19T10:25:00.120Z,20.48
2018-02-19T10:27:29.214Z,15.77
2018-02-19T10:29:58.357Z,18.92
2018-02-19T10:32:27.908Z,20.27
2018-02-19T10:34:57.078Z,19.10
2018-02-19T10:37:26.604Z,18.52
2018-02-19T10:39:55.730Z,15.98
2018-02-19T10:42:24.750Z,17.75
2018-02-19T10:44:53.693Z,19.00
2018-02-19T10:47:22.744Z,21.42
2018-02-19T10:49:52.411Z,47.65
2018-02-19T10:52:21.330Z,45.12
2018-02-19T10:54:50.633Z,33.95
2018-02-19T10:57:20.136Z,31.83
2018-02-19T10:59:49.393Z,29.40
2018-02-19T11:02:18.304Z,28.33
2018-02-19T11:04:47.747Z,30.30
2018-02-19T11:07:17.042Z,33.92
2018-02-19T11:09:45.962Z,35.53
2018-02-19T11:12:15.239Z,28.23
2018-02-19T11:14:44.334Z,33.30
2018-02-19T11:17:13.652Z,37.42
2018-02-19T11:19:43.318Z,29.25
2018-02-19T11:22:12.230Z,41.50
2018-02-19T11:24:41.294Z,35.05
2018-02-19T11:27:10.732Z,35.15
2018-02-19T11:29:39.762Z,30.10
2018-02-19T11:32:09.050Z,32.35
2018-02-19T11:34:38.388Z,32.88
2018-02-19T11:37:07.354Z,42.22
2018-02-19T11:39:36.532Z,33.45
2018-02-19T11:42:05.564Z,25.55
2018-02-19T11:44:34.848Z,38.08
2018-02-19T11:47:03.907Z,35.90
2018-02-19T11:49:33.170Z,32.63
2018-02-19T11:52:02.376Z,38.13
2018-02-19T11:54:31.759Z,33.97
2018-02-19T11:57:00.863Z,25.48
2018-02-19T11:59:30.066Z,29.63
2018-02-19T12:01:59.247Z,26.02
2018-02-19T12:04:28.622Z,21.60
2018-02-19T12:06:57.723Z,29.58
2018-02-19T12:09:26.818Z,25.77
2018-02-19T12:11:55.943Z,29.80
2018-02-19T12:14:25.171Z,23.05
2018-02-19T12:16:54.082Z,25.15
2018-02-19T12:19:23.027Z,22.23
2018-02-19T12:21:52.267Z,22.45
2018-02-19T12:24:21.370Z,20.45
2018-02-19T12:26:51.172Z,21.27
2018-02-19T12:29:20.242Z,22.17
2018-02-19T12:31:49.698Z,18.77
2018-02-19T12:34:18.764Z,21.35
2018-02-19T12:36:48.068Z,17.62
2018-02-19T12:39:17.355Z,19.25
2018-02-19T12:41:46.616Z,19.05
2018-02-19T12:44:15.551Z,16.35
2018-02-19T12:46:44.682Z,18.42
2018-02-19T12:49:13.955Z,13.25
2018-02-19T12:51:43.040Z,11.63
2018-02-19T12:54:12.435Z,12.52
2018-02-19T12:56:41.578Z,11.00
2018-02-19T12:59:10.699Z,8.70
2018-02-19T13:01:39.900Z,12.37
2018-02-19T13:04:09.243Z,10.65
2018-02-19T13:06:38.303Z,14.07
2018-02-19T13:09:07.399Z,11.25
2018-02-19T13:11:36.623Z,12.07
2018-02-19T13:14:05.957Z,15.00
2018-02-19T13:16:35.066Z,14.63
2018-02-19T13:19:03.976Z,17.10
2018-02-19T13:21:33.406Z,19.10
2018-02-19T13:24:02.950Z,17.67
2018-02-19T13:26:32.029Z,18.05
2018-02-19T13:29:01.392Z,22.60
2018-02-19T13:31:30.404Z,24.35
2018-02-19T13:33:59.367Z,24.45
2018-02-19T13:36:28.480Z,23.02
2018-02-19T13:38:57.589Z,29.33
2018-02-19T13:41:26.534Z,30.95
2018-02-19T13:43:55.587Z,33.92
2018-02-19T13:46:24.499Z,38.85
2018-02-19T13:48:53.954Z,41.13
2018-02-19T13:51:23.497Z,36.13
2018-02-19T13:53:52.525Z,31.92
2018-02-19T13:56:21.713Z,36.50
2018-02-19T13:58:51.127Z,30.12
2018-02-19T14:01:20.227Z,27.15
2018-02-19T14:03:49.286Z,40.80
2018-02-19T14:06:19.215Z,37.97
2018-02-19T14:08:48.401Z,35.72
2018-02-19T14:11:17.870Z,34.65
2018-02-19T14:13:47.020Z,34.92
2018-02-19T14:16:15.950Z,33.63
2018-02-19T14:18:44.827Z,35.72
2018-02-19T14:21:13.842Z,39.22
2018-02-19T14:23:42.827Z,38.28
2018-02-19T14:26:12.171Z,46.53
2018-02-19T14:28:41.251Z,37.10
2018-02-19T14:31:10.429Z,35.17
2018-02-19T14:33:39.570Z,33.53
2018-02-19T14:36:08.790Z,37.88
2018-02-19T14:38:38.103Z,37.20
2018-02-19T14:41:07.022Z,29.02
2018-02-19T14:43:36.011Z,29.60
2018-02-19T14:46:05.009Z,35.22
2018-02-19T14:48:34.531Z,38.40
2018-02-19T14:51:03.397Z,42.92
2018-02-19T14:53:32.791Z,36.88
2018-02-19T14:56:02.411Z,43.25
2018-02-19T14:58:32.515Z,42.40
2018-02-19T15:01:01.499Z,45.47
2018-02-19T15:03:30.695Z,44.80
2018-02-19T15:05:59.946Z,47.05
2018-02-19T15:08:29.225Z,44.85
2018-02-19T15:10:58.612Z,41.13
2018-02-19T15:16:02.880Z,40.55
2018-02-19T15:18:32.351Z,35.53
2018-02-19T15:21:01.499Z,38.88
2018-02-19T15:23:30.577Z,37.88
2018-02-19T15:25:59.747Z,41.22
2018-02-19T15:28:28.926Z,40.30
2018-02-19T15:30:57.969Z,39.92
2018-02-19T15:33:27.018Z,38.08
2018-02-19T15:35:56.103Z,42.45
2018-02-19T15:38:25.193Z,36.22
2018-02-19T15:40:54.183Z,31.85
2018-02-19T15:43:23.543Z,33.60
2018-02-19T15:45:52.782Z,33.30
2018-02-19T15:48:21.846Z,31.45
2018-02-19T15:50:50.990Z,36.78
2018-02-19T15:53:20.103Z,29.00
2018-02-19T15:55:49.354Z,31.27
2018-02-19T15:58:18.361Z,31.65
2018-02-19T16:00:47.444Z,41.42
2018-02-19T16:03:16.360Z,37.45
2018-02-19T16:05:45.549Z,40.60
2018-02-19T16:08:14.530Z,39.28
2018-02-19T16:10:43.455Z,34.47
2018-02-19T16:13:12.499Z,35.75
2018-02-19T16:15:41.651Z,37.83
2018-02-19T16:18:10.634Z,47.15
2018-02-19T16:20:40.566Z,50.20
2018-02-19T16:23:10.180Z,49.50
2018-02-19T16:25:39.271Z,41.77
2018-02-19T16:28:08.397Z,43.87
2018-02-19T16:30:37.558Z,43.25
2018-02-19T16:33:06.504Z,51.58
2018-02-19T16:35:35.764Z,40.50
2018-02-19T16:38:04.922Z,45.58
2018-02-19T16:40:33.825Z,42.25
2018-02-19T16:43:03.402Z,45.67
2018-02-19T16:45:33.057Z,45.47
2018-02-19T16:48:03.505Z,50.35
2018-02-19T16:50:33.160Z,40.60
2018-02-19T16:53:02.570Z,44.35
2018-02-19T16:55:32.052Z,46.28
2018-02-19T16:58:01.659Z,50.75
2018-02-19T17:00:31.030Z,52.25
2018-02-19T17:03:00.325Z,48.15
2018-02-19T17:05:29.385Z,53.40
2018-02-19T17:07:58.360Z,51.65
2018-02-19T17:10:27.953Z,46.03
2018-02-19T17:12:57.206Z,47.78
2018-02-19T17:15:26.426Z,46.58
2018-02-19T17:17:55.458Z,42.38
2018-02-19T17:20:24.467Z,49.88
2018-02-19T17:22:54.075Z,45.65
2018-02-19T17:25:23.038Z,38.10
2018-02-19T17:27:52.233Z,46.78
2018-02-19T17:30:21.441Z,42.80
2018-02-19T17:32:50.502Z,35.75
2018-02-19T17:35:19.845Z,48.60
2018-02-19T17:37:49.006Z,38.60
2018-02-19T17:40:18.010Z,46.40
2018-02-19T17:42:47.222Z,39.13
2018-02-19T17:45:16.771Z,40.67
2018-02-19T17:47:46.017Z,42.03
2018-02-19T17:50:15.092Z,37.08
2018-02-19T17:52:44.440Z,45.30
2018-02-19T17:55:13.918Z,51.72
2018-02-19T17:57:43.514Z,36.47
2018-02-19T18:00:12.928Z,45.20
2018-02-19T18:02:42.175Z,37.53
2018-02-19T18:05:11.727Z,37.20
2018-02-19T18:07:40.981Z,37.33
2018-02-19T18:10:10.136Z,46.17
2018-02-19T18:12:39.686Z,40.88
2018-02-19T18:15:08.794Z,42.35
2018-02-19T18:17:38.039Z,38.83
2018-02-19T18:20:09.665Z,32.92
2018-02-19T18:22:38.848Z,35.33
2018-02-19T18:25:08.103Z,41.90
2018-02-19T18:27:37.154Z,38.10
2018-02-19T18:30:06.171Z,40.03
2018-02-19T18:32:35.342Z,37.33
2018-02-19T18:35:04.331Z,39.45
2018-02-19T18:37:33.279Z,44.20
2018-02-19T18:40:02.932Z,40.42
2018-02-19T18:42:32.170Z,42.08
2018-02-19T18:45:01.419Z,45.88
2018-02-19T18:47:30.488Z,42.58
2018-02-19T18:49:59.693Z,38.60
2018-02-19T18:52:28.917Z,39.53
2018-02-19T18:54:58.191Z,40.40
2018-02-19T18:57:27.340Z,36.60
2018-02-19T18:59:56.449Z,41.25
2018-02-19T19:02:25.385Z,39.28
2018-02-19T19:04:54.219Z,34.42
2018-02-19T19:07:34.666Z,37.78
2018-02-19T19:10:15.206Z,38.75
2018-02-19T19:12:43.937Z,30.27
2018-02-19T19:15:13.313Z,41.10
2018-02-19T19:17:42.759Z,38.63
2018-02-19T19:20:11.978Z,40.70
2018-02-19T19:22:41.250Z,39.17
2018-02-19T19:25:10.158Z,39.78
2018-02-19T19:27:39.508Z,35.90
2018-02-19T19:30:08.812Z,35.40
2018-02-19T19:32:38.106Z,37.75
2018-02-19T19:35:07.410Z,34.55
2018-02-19T19:37:36.660Z,38.60
2018-02-19T19:40:05.842Z,41.88
2018-02-19T19:42:35.035Z,39.72
2018-02-19T19:45:04.182Z,39.83
2018-02-19T19:47:33.640Z,43.33
2018-02-19T19:50:03.006Z,41.60
2018-02-19T19:52:32.258Z,50.00
2018-02-19T19:55:01.326Z,46.40
2018-02-19T19:57:30.777Z,48.30
2018-02-19T19:59:59.846Z,49.45
2018-02-19T20:02:28.929Z,44.83
2018-02-19T20:04:58.066Z,48.63
2018-02-19T20:07:27.226Z,57.80
2018-02-19T20:09:56.259Z,49.42
2018-02-19T20:12:25.407Z,45.88
2018-02-19T20:14:54.645Z,47.67
2018-02-19T20:17:23.715Z,51.15
2018-02-19T20:19:52.772Z,48.63
2018-02-19T20:22:22.275Z,42.13
2018-02-19T20:24:51.361Z,43.03
2018-02-19T20:27:20.582Z,49.72
2018-02-19T20:29:49.593Z,47.35
2018-02-19T20:32:18.722Z,45.88
2018-02-19T20:34:47.828Z,47.00
2018-02-19T20:37:17.063Z,51.65
2018-02-19T20:39:46.176Z,45.38
2018-02-19T20:42:15.329Z,50.88
2018-02-19T20:44:44.478Z,48.58
2018-02-19T20:47:13.778Z,46.63
2018-02-19T20:49:43.177Z,44.90
2018-02-19T20:52:12.831Z,48.17
2018-02-19T20:54:42.237Z,42.72
2018-02-19T20:57:11.619Z,47.85
2018-02-19T20:59:40.988Z,44.65
2018-02-19T21:02:10.163Z,41.83
2018-02-19T21:04:39.254Z,41.47
2018-02-19T21:07:08.305Z,50.28
2018-02-19T21:09:37.305Z,43.70
2018-02-19T21:12:06.350Z,45.05
2018-02-19T21:14:35.386Z,43.35
2018-02-19T21:17:04.734Z,42.28
2018-02-19T21:19:33.942Z,38.63
2018-02-19T21:22:03.233Z,46.60
2018-02-19T21:24:32.637Z,44.33
2018-02-19T21:27:01.766Z,41.25
2018-02-19T21:29:31.548Z,40.17
2018-02-19T21:32:00.414Z,43.30
2018-02-19T21:34:29.301Z,40.30
2018-02-19T21:36:58.273Z,42.13
2018-02-19T21:39:27.328Z,40.88
2018-02-19T21:41:56.614Z,40.33
2018-02-19T21:44:25.717Z,37.17
2018-02-19T21:46:54.800Z,41.10
2018-02-19T21:49:23.772Z,44.35
2018-02-19T21:51:52.894Z,40.88
2018-02-19T21:54:21.921Z,40.72
2018-02-19T21:56:50.974Z,43.22
2018-02-19T21:59:20.511Z,49.92
2018-02-19T22:01:49.883Z,43.87
2018-02-19T22:04:19.329Z,41.15
2018-02-19T22:06:48.494Z,42.30
2018-02-19T22:09:17.921Z,45.45
2018-02-19T22:11:46.758Z,39.25
2018-02-19T22:14:15.679Z,42.88
2018-02-19T22:16:45.121Z,38.92
2018-02-19T22:19:14.437Z,40.85
2018-02-19T22:21:43.617Z,40.65
2018-02-19T22:24:13.200Z,40.85
2018-02-19T22:26:42.611Z,41.75
2018-02-19T22:29:11.617Z,42.75
2018-02-19T22:31:40.626Z,41.00
2018-02-19T22:34:09.458Z,39.92
2018-02-19T22:36:38.521Z,38.67
2018-02-19T22:39:07.693Z,38.80
2018-02-19T22:41:37.483Z,30.73
2018-02-19T22:44:06.511Z,37.85
2018-02-19T22:46:35.701Z,36.30
2018-02-19T22:49:05.214Z,41.45
2018-02-19T22:51:34.310Z,39.83
2018-02-19T22:54:03.555Z,43.63
2018-02-19T22:56:32.641Z,37.35
2018-02-19T22:59:01.790Z,38.25
2018-02-19T23:01:30.960Z,37.65
2018-02-19T23:04:00.347Z,41.90
2018-02-19T23:06:29.449Z,41.30
2018-02-19T23:08:59.277Z,38.47
2018-02-19T23:11:28.581Z,43.35
2018-02-19T23:13:57.694Z,41.20
2018-02-19T23:16:26.897Z,48.55
2018-02-19T23:18:56.173Z,40.28
2018-02-19T23:21:26.316Z,42.55
2018-02-19T23:23:55.512Z,35.20
2018-02-19T23:26:24.609Z,39.55
2018-02-19T23:28:53.693Z,43.63
2018-02-19T23:31:22.697Z,43.33
2018-02-19T23:33:51.897Z,41.70
2018-02-19T23:36:22.075Z,44.83
2018-02-19T23:38:51.522Z,32.05
2018-02-19T23:41:20.688Z,42.20
2018-02-19T23:43:49.927Z,45.35
2018-02-19T23:46:19.110Z,40.70
2018-02-19T23:48:48.379Z,44.63
2018-02-19T23:51:17.372Z,43.67
2018-02-19T23:53:46.574Z,38.03
2018-02-19T23:56:15.866Z,42.85
2018-02-19T23:58:45.238Z,46.47
